createdAt,value
2017-09-20T00:00:31.506Z,10.98
2017-09-20T00:01:31.495Z,10.99
2017-09-20T00:02:31.477Z,10.94
2017-09-20T00:03:31.444Z,11.03
2017-09-20T00:04:31.427Z,10.95
2017-09-20T00:05:31.096Z,11.01
2017-09-20T00:06:31.368Z,11.02
2017-09-20T00:07:31.397Z,10.99
2017-09-20T00:08:31.334Z,10.94
2017-09-20T00:09:31.312Z,10.91
2017-09-20T00:10:31.283Z,10.9
2017-09-20T00:11:31.298Z,10.94
2017-09-20T00:12:31.239Z,10.95
2017-09-20T00:13:31.218Z,10.99
2017-09-20T00:14:30.891Z,10.93
2017-09-20T00:15:30.859Z,10.91
2017-09-20T00:16:31.146Z,10.99
2017-09-20T00:17:31.127Z,10.95
2017-09-20T00:18:31.150Z,10.9
2017-09-20T00:19:31.074Z,10.94
2017-09-20T00:20:31.053Z,10.99
2017-09-20T00:21:31.034Z,10.88
2017-09-20T00:22:31.009Z,10.83
2017-09-20T00:23:30.986Z,10.84
2017-09-20T00:24:30.964Z,10.91
2017-09-20T00:25:30.947Z,10.94
2017-09-20T00:26:30.916Z,11.02
2017-09-20T00:27:30.892Z,10.95
2017-09-20T00:28:30.870Z,10.95
2017-09-20T00:29:30.846Z,10.94
2017-09-20T00:30:30.827Z,11.01
2017-09-20T00:31:30.800Z,11.01
2017-09-20T00:32:30.783Z,11.08
2017-09-20T00:33:30.751Z,11.06
2017-09-20T00:34:30.741Z,11.05
2017-09-20T00:35:30.717Z,11.08
2017-09-20T00:36:30.378Z,11.06
2017-09-20T00:37:30.668Z,11.06
2017-09-20T00:38:30.648Z,11.05
2017-09-20T00:39:30.624Z,11.08
2017-09-20T00:40:30.594Z,11.05
2017-09-20T00:41:30.582Z,11.08
2017-09-20T00:42:30.552Z,11.11
2017-09-20T00:43:30.219Z,11.12
2017-09-20T00:44:30.504Z,11.09
2017-09-20T00:45:30.489Z,11.08
2017-09-20T00:46:30.453Z,11.08
2017-09-20T00:47:30.438Z,11.17
2017-09-20T00:48:30.415Z,11.05
2017-09-20T00:49:30.390Z,11.12
2017-09-20T00:50:30.366Z,11.06
2017-09-20T00:51:30.342Z,10.94
2017-09-20T00:52:30.326Z,11.01
2017-09-20T00:53:30.299Z,10.98
2017-09-20T00:54:30.276Z,10.99
2017-09-20T00:55:30.265Z,11.05
2017-09-20T00:56:29.978Z,10.93
2017-09-20T00:57:30.206Z,10.99
2017-09-20T00:58:30.185Z,10.98
2017-09-20T00:59:30.159Z,11.02
2017-09-20T01:00:30.136Z,10.99
2017-09-20T01:01:30.115Z,10.98
2017-09-20T01:02:30.092Z,10.99
2017-09-20T01:03:29.760Z,10.87
2017-09-20T01:04:30.049Z,10.99
2017-09-20T01:05:30.024Z,10.93
2017-09-20T01:06:30.001Z,10.83
2017-09-20T01:07:29.980Z,10.83
2017-09-20T01:08:29.655Z,10.84
2017-09-20T01:09:29.932Z,10.95
2017-09-20T01:10:29.914Z,10.94
2017-09-20T01:11:29.886Z,10.94
2017-09-20T01:12:29.867Z,10.99
2017-09-20T01:13:29.844Z,10.91
2017-09-20T01:14:29.814Z,10.91
2017-09-20T01:15:29.805Z,10.88
2017-09-20T01:16:29.779Z,10.91
2017-09-20T01:17:29.757Z,10.95
2017-09-20T01:18:29.724Z,10.87
2017-09-20T01:19:29.705Z,10.88
2017-09-20T01:20:29.692Z,10.93
2017-09-20T01:21:29.659Z,11.01
2017-09-20T01:22:29.647Z,10.86
2017-09-20T01:23:29.614Z,10.88
2017-09-20T01:24:29.587Z,10.9
2017-09-20T01:25:29.569Z,10.83
2017-09-20T01:26:29.539Z,10.91
2017-09-20T01:27:29.525Z,10.81
2017-09-20T01:28:29.496Z,10.78
2017-09-20T01:29:29.481Z,10.78
2017-09-20T01:30:29.451Z,10.78
2017-09-20T01:31:29.449Z,10.84
2017-09-20T01:32:29.449Z,10.83
2017-09-20T01:33:29.074Z,10.75
2017-09-20T01:34:29.355Z,10.83
2017-09-20T01:35:29.342Z,10.81
2017-09-20T01:36:29.346Z,10.84
2017-09-20T01:37:28.996Z,10.78
2017-09-20T01:38:29.268Z,10.91
2017-09-20T01:39:29.249Z,10.78
2017-09-20T01:40:29.224Z,10.8
2017-09-20T01:41:29.198Z,10.87
2017-09-20T01:42:29.185Z,10.81
2017-09-20T01:43:29.154Z,10.87
2017-09-20T01:44:29.136Z,10.87
2017-09-20T01:45:29.108Z,10.91
2017-09-20T01:46:29.085Z,10.87
2017-09-20T01:47:29.059Z,10.9
2017-09-20T01:48:29.039Z,10.87
2017-09-20T01:49:29.021Z,10.83
2017-09-20T01:50:28.997Z,10.8
2017-09-20T01:51:28.972Z,10.78
2017-09-20T01:52:29.009Z,10.87
2017-09-20T01:53:28.928Z,10.88
2017-09-20T01:54:28.904Z,10.87
2017-09-20T01:55:28.885Z,10.88
2017-09-20T01:56:28.854Z,10.9
2017-09-20T01:57:28.843Z,10.86
2017-09-20T01:58:28.814Z,10.9
2017-09-20T01:59:28.791Z,10.87
2017-09-20T02:00:28.764Z,10.87
2017-09-20T02:01:28.792Z,10.8
2017-09-20T02:02:28.723Z,10.8
2017-09-20T02:03:28.748Z,10.86
2017-09-20T02:04:28.673Z,10.78
2017-09-20T02:05:28.343Z,10.84
2017-09-20T02:06:28.628Z,10.86
2017-09-20T02:07:28.609Z,10.87
2017-09-20T02:08:28.583Z,10.87
2017-09-20T02:09:28.561Z,10.84
2017-09-20T02:10:28.541Z,10.78
2017-09-20T02:11:28.516Z,10.83
2017-09-20T02:12:28.548Z,10.76
2017-09-20T02:13:28.466Z,10.87
2017-09-20T02:14:28.448Z,10.83
2017-09-20T02:15:28.113Z,10.84
2017-09-20T02:16:28.402Z,10.84
2017-09-20T02:17:28.380Z,10.75
2017-09-20T02:18:28.356Z,10.83
2017-09-20T02:19:28.328Z,10.78
2017-09-20T02:20:28.313Z,10.87
2017-09-20T02:21:28.282Z,10.8
2017-09-20T02:22:28.262Z,10.83
2017-09-20T02:23:28.241Z,10.88
2017-09-20T02:24:28.221Z,10.9
2017-09-20T02:25:28.193Z,10.9
2017-09-20T02:26:28.165Z,10.86
2017-09-20T02:27:28.150Z,10.86
2017-09-20T02:28:28.119Z,10.87
2017-09-20T02:29:28.105Z,10.83
2017-09-20T02:30:28.071Z,10.78
2017-09-20T02:31:28.062Z,10.84
2017-09-20T02:32:28.039Z,10.73
2017-09-20T02:33:28.017Z,10.75
2017-09-20T02:34:27.998Z,10.8
2017-09-20T02:35:27.963Z,10.83
2017-09-20T02:36:27.633Z,10.84
2017-09-20T02:37:29.042Z,10.86
2017-09-20T02:38:28.574Z,10.84
2017-09-20T02:39:27.867Z,10.87
2017-09-20T02:40:27.929Z,10.83
2017-09-20T02:41:27.829Z,10.86
2017-09-20T02:42:27.804Z,10.86
2017-09-20T02:43:27.778Z,10.86
2017-09-20T02:44:27.759Z,10.94
2017-09-20T02:45:27.745Z,10.94
2017-09-20T02:46:27.715Z,10.91
2017-09-20T02:47:27.388Z,10.87
2017-09-20T02:48:27.665Z,10.93
2017-09-20T02:49:27.654Z,10.86
2017-09-20T02:50:27.620Z,10.93
2017-09-20T02:51:27.600Z,10.93
2017-09-20T02:52:27.575Z,10.9
2017-09-20T02:53:27.550Z,10.93
2017-09-20T02:54:27.528Z,10.87
2017-09-20T02:55:27.502Z,10.9
2017-09-20T02:56:27.480Z,10.99
2017-09-20T02:57:27.468Z,10.84
2017-09-20T02:58:27.436Z,10.99
2017-09-20T02:59:27.417Z,11.01
2017-09-20T03:00:27.400Z,11.01
2017-09-20T03:01:27.371Z,11.01
2017-09-20T03:02:27.041Z,11.03
2017-09-20T03:03:27.324Z,10.98
2017-09-20T03:04:27.299Z,10.93
2017-09-20T03:05:27.273Z,10.94
2017-09-20T03:06:27.251Z,10.98
2017-09-20T03:07:27.223Z,10.98
2017-09-20T03:08:27.208Z,11.01
2017-09-20T03:09:27.182Z,11.02
2017-09-20T03:10:27.157Z,10.99
2017-09-20T03:11:27.149Z,10.94
2017-09-20T03:12:27.120Z,11.08
2017-09-20T03:13:27.120Z,10.99
2017-09-20T03:14:27.073Z,10.99
2017-09-20T03:15:27.048Z,11.01
2017-09-20T03:16:26.754Z,11.02
2017-09-20T03:17:27.000Z,10.98
2017-09-20T03:18:26.666Z,10.99
2017-09-20T03:19:26.649Z,10.94
2017-09-20T03:20:26.931Z,10.99
2017-09-20T03:21:26.914Z,11.02
2017-09-20T03:22:26.883Z,10.94
2017-09-20T03:23:26.556Z,11.01
2017-09-20T03:24:26.842Z,10.98
2017-09-20T03:25:26.870Z,11.02
2017-09-20T03:26:26.797Z,11.01
2017-09-20T03:27:26.772Z,11.01
2017-09-20T03:28:26.757Z,11.01
2017-09-20T03:29:26.727Z,11.08
2017-09-20T03:30:26.727Z,11.06
2017-09-20T03:31:26.689Z,11.01
2017-09-20T03:32:26.659Z,11.02
2017-09-20T03:33:26.637Z,11.03
2017-09-20T03:34:26.615Z,10.99
2017-09-20T03:35:26.594Z,11.11
2017-09-20T03:36:26.564Z,11.06
2017-09-20T03:37:26.546Z,11.12
2017-09-20T03:38:26.216Z,11.06
2017-09-20T03:39:26.497Z,11.06
2017-09-20T03:40:26.483Z,11.06
2017-09-20T03:41:26.460Z,11.16
2017-09-20T03:42:26.435Z,11.16
2017-09-20T03:43:26.416Z,11.17
2017-09-20T03:44:26.391Z,11.03
2017-09-20T03:45:26.390Z,11.08
2017-09-20T03:46:26.338Z,11.13
2017-09-20T03:47:26.309Z,11.12
2017-09-20T03:48:26.292Z,11.13
2017-09-20T03:49:25.958Z,11.16
2017-09-20T03:50:26.249Z,11.21
2017-09-20T03:51:25.918Z,11.23
2017-09-20T03:52:26.213Z,11.19
2017-09-20T03:53:26.174Z,11.26
2017-09-20T03:54:26.160Z,11.19
2017-09-20T03:55:26.133Z,11.24
2017-09-20T03:56:26.110Z,11.16
2017-09-20T03:57:26.089Z,11.21
2017-09-20T03:58:26.067Z,11.23
2017-09-20T03:59:26.092Z,11.26
2017-09-20T04:00:26.019Z,11.13
2017-09-20T04:01:26.014Z,11.28
2017-09-20T04:02:25.979Z,11.2
2017-09-20T04:03:25.953Z,11.13
2017-09-20T04:04:25.934Z,11.17
2017-09-20T04:05:25.907Z,11.23
2017-09-20T04:06:25.889Z,11.16
2017-09-20T04:07:25.863Z,11.2
2017-09-20T04:08:25.844Z,11.09
2017-09-20T04:09:25.812Z,11.19
2017-09-20T04:10:25.792Z,11.26
2017-09-20T04:11:25.768Z,11.19
2017-09-20T04:12:25.747Z,11.19
2017-09-20T04:13:25.719Z,11.19
2017-09-20T04:14:25.699Z,11.13
2017-09-20T04:15:25.683Z,11.19
2017-09-20T04:16:25.654Z,11.24
2017-09-20T04:17:25.632Z,11.28
2017-09-20T04:18:25.301Z,11.26
2017-09-20T04:19:25.586Z,11.16
2017-09-20T04:20:25.572Z,11.35
2017-09-20T04:21:25.550Z,11.41
2017-09-20T04:22:25.513Z,11.36
2017-09-20T04:23:25.499Z,11.36
2017-09-20T04:24:25.526Z,11.44
2017-09-20T04:25:25.445Z,11.44
2017-09-20T04:26:25.425Z,11.38
2017-09-20T04:27:25.398Z,11.28
2017-09-20T04:28:25.383Z,11.38
2017-09-20T04:29:25.354Z,11.35
2017-09-20T04:30:25.339Z,11.44
2017-09-20T04:31:25.312Z,11.41
2017-09-20T04:32:25.282Z,11.44
2017-09-20T04:33:25.263Z,11.35
2017-09-20T04:34:25.244Z,11.44
2017-09-20T04:35:25.219Z,11.36
2017-09-20T04:36:25.204Z,11.41
2017-09-20T04:37:25.173Z,11.39
2017-09-20T04:38:25.145Z,11.21
2017-09-20T04:39:25.138Z,11.3
2017-09-20T04:40:25.111Z,11.26
2017-09-20T04:41:25.077Z,11.39
2017-09-20T04:42:25.066Z,11.38
2017-09-20T04:43:25.041Z,11.41
2017-09-20T04:44:25.016Z,11.41
2017-09-20T04:45:24.988Z,11.41
2017-09-20T04:46:24.977Z,11.35
2017-09-20T04:47:24.961Z,11.24
2017-09-20T04:48:24.931Z,11.35
2017-09-20T04:49:24.903Z,11.28
2017-09-20T04:50:24.887Z,11.36
2017-09-20T04:51:24.853Z,11.42
2017-09-20T04:52:24.840Z,11.49
2017-09-20T04:53:24.809Z,11.39
2017-09-20T04:54:24.784Z,11.41
2017-09-20T04:55:24.766Z,11.39
2017-09-20T04:56:24.433Z,11.44
2017-09-20T04:57:24.717Z,11.36
2017-09-20T04:58:24.693Z,11.38
2017-09-20T04:59:24.677Z,11.39
2017-09-20T05:00:24.647Z,11.21
2017-09-20T05:01:24.832Z,11.3
2017-09-20T05:02:24.618Z,11.23
2017-09-20T05:03:24.577Z,11.31
2017-09-20T05:04:24.612Z,11.26
2017-09-20T05:05:24.534Z,11.38
2017-09-20T05:06:24.515Z,11.3
2017-09-20T05:07:24.493Z,11.26
2017-09-20T05:08:24.473Z,11.38
2017-09-20T05:09:24.491Z,11.17
2017-09-20T05:10:24.414Z,11.13
2017-09-20T05:11:24.398Z,11.21
2017-09-20T05:12:24.380Z,11.23
2017-09-20T05:13:24.352Z,11.17
2017-09-20T05:14:24.333Z,11.23
2017-09-20T05:15:24.303Z,11.19
2017-09-20T05:16:24.283Z,11.19
2017-09-20T05:17:24.253Z,11.19
2017-09-20T05:18:24.251Z,11.19
2017-09-20T05:19:24.218Z,11.13
2017-09-20T05:20:24.196Z,11.11
2017-09-20T05:21:24.179Z,11.23
2017-09-20T05:22:24.187Z,11.16
2017-09-20T05:23:24.167Z,11.2
2017-09-20T05:24:24.096Z,11.19
2017-09-20T05:25:24.080Z,11.23
2017-09-20T05:26:24.055Z,11.17
2017-09-20T05:27:24.045Z,11.11
2017-09-20T05:28:24.008Z,11.19
2017-09-20T05:29:23.985Z,11.26
2017-09-20T05:30:23.972Z,11.26
2017-09-20T05:31:23.949Z,11.13
2017-09-20T05:32:23.921Z,11.16
2017-09-20T05:33:23.900Z,11.24
2017-09-20T05:34:23.877Z,11.3
2017-09-20T05:35:23.542Z,11.23
2017-09-20T05:36:23.829Z,11.31
2017-09-20T05:37:23.818Z,11.24
2017-09-20T05:38:23.797Z,11.2
2017-09-20T05:39:23.758Z,11.27
2017-09-20T05:40:23.733Z,11.31
2017-09-20T05:41:23.721Z,11.28
2017-09-20T05:42:23.689Z,11.21
2017-09-20T05:43:23.664Z,11.28
2017-09-20T05:44:23.647Z,11.27
2017-09-20T05:45:23.627Z,11.35
2017-09-20T05:46:23.697Z,11.33
2017-09-20T05:47:23.581Z,11.38
2017-09-20T05:48:23.555Z,11.21
2017-09-20T05:49:23.531Z,11.3
2017-09-20T05:50:23.564Z,11.41
2017-09-20T05:51:23.491Z,11.39
2017-09-20T05:52:23.465Z,11.28
2017-09-20T05:53:23.439Z,11.38
2017-09-20T05:54:23.420Z,11.45
2017-09-20T05:55:23.400Z,11.41
2017-09-20T05:56:23.378Z,11.41
2017-09-20T05:57:23.357Z,11.38
2017-09-20T05:58:23.328Z,11.38
2017-09-20T05:59:23.315Z,11.38
2017-09-20T06:00:23.291Z,11.46
2017-09-20T06:01:23.258Z,11.41
2017-09-20T06:02:23.245Z,11.45
2017-09-20T06:03:23.218Z,11.38
2017-09-20T06:04:23.190Z,11.53
2017-09-20T06:05:23.167Z,11.46
2017-09-20T06:06:23.146Z,11.41
2017-09-20T06:07:23.127Z,11.44
2017-09-20T06:08:23.106Z,11.51
2017-09-20T06:09:23.084Z,11.42
2017-09-20T06:10:23.056Z,11.36
2017-09-20T06:11:23.035Z,11.45
2017-09-20T06:12:23.047Z,11.44
2017-09-20T06:13:22.990Z,11.54
2017-09-20T06:14:22.966Z,11.45
2017-09-20T06:15:22.946Z,11.53
2017-09-20T06:16:22.928Z,11.53
2017-09-20T06:17:22.897Z,11.53
2017-09-20T06:18:22.869Z,11.56
2017-09-20T06:19:22.851Z,11.54
2017-09-20T06:20:22.832Z,11.6
2017-09-20T06:21:22.806Z,11.57
2017-09-20T06:22:22.476Z,11.64
2017-09-20T06:23:22.454Z,11.67
2017-09-20T06:24:22.741Z,11.53
2017-09-20T06:25:22.711Z,11.63
2017-09-20T06:26:22.699Z,11.56
2017-09-20T06:27:22.672Z,11.69
2017-09-20T06:28:22.335Z,11.63
2017-09-20T06:29:22.624Z,11.59
2017-09-20T06:30:22.605Z,11.7
2017-09-20T06:31:22.585Z,11.66
2017-09-20T06:32:22.561Z,11.66
2017-09-20T06:33:22.538Z,11.66
2017-09-20T06:34:22.206Z,11.7
2017-09-20T06:35:22.491Z,11.75
2017-09-20T06:36:22.472Z,11.79
2017-09-20T06:37:22.455Z,11.7
2017-09-20T06:38:22.421Z,11.79
2017-09-20T06:39:22.092Z,11.84
2017-09-20T06:40:22.374Z,11.84
2017-09-20T06:41:22.355Z,11.79
2017-09-20T06:42:22.326Z,11.82
2017-09-20T06:43:22.309Z,11.88
2017-09-20T06:44:22.283Z,11.82
2017-09-20T06:45:22.317Z,11.88
2017-09-20T06:46:21.928Z,11.88
2017-09-20T06:47:22.215Z,11.96
2017-09-20T06:48:22.194Z,11.96
2017-09-20T06:49:22.208Z,11.98
2017-09-20T06:50:22.153Z,11.97
2017-09-20T06:51:22.125Z,11.98
2017-09-20T06:52:22.106Z,12.01
2017-09-20T06:53:22.088Z,12.12
2017-09-20T06:54:22.068Z,12.01
2017-09-20T06:55:22.042Z,12.08
2017-09-20T06:56:22.013Z,12.07
2017-09-20T06:57:22.004Z,12.05
2017-09-20T06:58:21.973Z,12.21
2017-09-20T06:59:21.646Z,12.21
2017-09-20T07:00:21.630Z,12.23
2017-09-20T07:01:21.905Z,12.25
2017-09-20T07:02:21.882Z,12.22
2017-09-20T07:03:21.559Z,12.29
2017-09-20T07:04:21.844Z,12.18
2017-09-20T07:05:21.814Z,12.22
2017-09-20T07:06:21.790Z,12.31
2017-09-20T07:07:21.772Z,12.36
2017-09-20T07:08:21.742Z,12.38
2017-09-20T07:09:21.727Z,12.38
2017-09-20T07:10:21.706Z,12.36
2017-09-20T07:11:21.683Z,12.4
2017-09-20T07:12:21.659Z,12.34
2017-09-20T07:13:21.639Z,12.31
2017-09-20T07:14:21.617Z,12.36
2017-09-20T07:15:21.288Z,12.37
2017-09-20T07:16:21.573Z,12.34
2017-09-20T07:17:21.231Z,12.25
2017-09-20T07:18:21.529Z,12.4
2017-09-20T07:19:21.208Z,12.34
2017-09-20T07:20:21.481Z,12.36
2017-09-20T07:21:21.457Z,12.33
2017-09-20T07:22:21.434Z,12.38
2017-09-20T07:23:21.416Z,12.43
2017-09-20T07:24:21.396Z,12.34
2017-09-20T07:25:21.370Z,12.33
2017-09-20T07:26:21.348Z,12.46
2017-09-20T07:27:21.336Z,12.48
2017-09-20T07:28:21.306Z,12.4
2017-09-20T07:29:21.293Z,12.43
2017-09-20T07:30:21.267Z,12.41
2017-09-20T07:31:20.934Z,12.43
2017-09-20T07:32:21.215Z,12.38
2017-09-20T07:33:21.204Z,12.43
2017-09-20T07:34:21.177Z,12.41
2017-09-20T07:35:21.149Z,12.31
2017-09-20T07:36:21.124Z,12.41
2017-09-20T07:37:21.107Z,12.37
2017-09-20T07:38:21.094Z,12.33
2017-09-20T07:39:21.073Z,12.43
2017-09-20T07:40:21.059Z,12.43
2017-09-20T07:41:21.025Z,12.46
2017-09-20T07:42:20.991Z,12.43
2017-09-20T07:43:20.976Z,12.41
2017-09-20T07:44:20.954Z,12.46
2017-09-20T07:45:20.937Z,12.44
2017-09-20T07:46:20.913Z,12.52
2017-09-20T07:47:20.881Z,12.49
2017-09-20T07:48:20.860Z,12.48
2017-09-20T07:49:20.849Z,12.49
2017-09-20T07:50:20.814Z,12.55
2017-09-20T07:51:20.805Z,12.56
2017-09-20T07:52:20.771Z,12.54
2017-09-20T07:53:20.750Z,12.56
2017-09-20T07:54:20.731Z,12.62
2017-09-20T07:55:20.709Z,12.63
2017-09-20T07:56:20.681Z,12.67
2017-09-20T07:57:20.669Z,12.62
2017-09-20T07:58:20.333Z,12.69
2017-09-20T07:59:20.309Z,12.76
2017-09-20T08:00:20.592Z,12.69
2017-09-20T08:01:20.570Z,12.8
2017-09-20T08:02:20.549Z,12.81
2017-09-20T08:03:20.528Z,12.87
2017-09-20T08:04:20.200Z,12.87
2017-09-20T08:05:20.488Z,12.87
2017-09-20T08:06:20.458Z,12.84
2017-09-20T08:07:20.137Z,12.85
2017-09-20T08:08:20.421Z,12.87
2017-09-20T08:09:20.128Z,12.87
2017-09-20T08:10:20.078Z,12.88
2017-09-20T08:11:20.368Z,12.89
2017-09-20T08:12:20.329Z,12.84
2017-09-20T08:13:20.310Z,12.85
2017-09-20T08:14:20.294Z,12.79
2017-09-20T08:15:20.265Z,12.84
2017-09-20T08:16:20.236Z,12.79
2017-09-20T08:17:20.209Z,12.76
2017-09-20T08:18:19.889Z,12.79
2017-09-20T08:19:20.175Z,12.73
2017-09-20T08:20:20.154Z,12.71
2017-09-20T08:21:20.131Z,12.74
2017-09-20T08:22:20.113Z,12.76
2017-09-20T08:23:20.084Z,12.76
2017-09-20T08:24:20.067Z,12.8
2017-09-20T08:25:20.041Z,12.77
2017-09-20T08:26:20.018Z,12.76
2017-09-20T08:27:19.689Z,12.76
2017-09-20T08:28:19.973Z,12.71
2017-09-20T08:29:19.952Z,12.88
2017-09-20T08:30:19.935Z,12.84
2017-09-20T08:31:19.900Z,12.85
2017-09-20T08:32:19.889Z,12.88
2017-09-20T08:33:19.861Z,12.95
2017-09-20T08:34:19.839Z,12.88
2017-09-20T08:35:19.821Z,13.03
2017-09-20T08:36:19.797Z,12.92
2017-09-20T08:37:19.780Z,13.07
2017-09-20T08:38:19.755Z,13.13
2017-09-20T08:39:19.735Z,13.13
2017-09-20T08:40:19.708Z,13.07
2017-09-20T08:41:19.691Z,13.13
2017-09-20T08:42:19.662Z,13.19
2017-09-20T08:43:19.650Z,13.29
2017-09-20T08:44:19.618Z,13.27
2017-09-20T08:45:19.292Z,13.31
2017-09-20T08:46:19.575Z,13.39
2017-09-20T08:47:19.562Z,13.44
2017-09-20T08:48:19.545Z,13.47
2017-09-20T08:49:19.509Z,13.44
2017-09-20T08:50:19.493Z,13.61
2017-09-20T08:51:19.464Z,13.59
2017-09-20T08:52:19.440Z,13.61
2017-09-20T08:53:19.425Z,13.61
2017-09-20T08:54:19.402Z,13.57
2017-09-20T08:55:19.078Z,13.57
2017-09-20T08:56:19.365Z,13.62
2017-09-20T08:57:19.338Z,13.55
2017-09-20T08:58:19.321Z,13.59
2017-09-20T08:59:19.290Z,13.65
2017-09-20T09:00:19.277Z,13.63
2017-09-20T09:01:19.259Z,13.72
2017-09-20T09:02:19.227Z,13.79
2017-09-20T09:03:19.218Z,13.72
2017-09-20T09:04:19.184Z,13.81
2017-09-20T09:05:19.167Z,13.86
2017-09-20T09:06:19.141Z,13.86
2017-09-20T09:07:19.166Z,13.88
2017-09-20T09:08:19.101Z,13.84
2017-09-20T09:09:19.077Z,14.01
2017-09-20T09:10:19.060Z,13.99
2017-09-20T09:11:19.038Z,14.11
2017-09-20T09:12:19.023Z,14.08
2017-09-20T09:13:18.998Z,14.2
2017-09-20T09:14:18.975Z,14.16
2017-09-20T09:15:18.646Z,14.35
2017-09-20T09:16:18.934Z,14.27
2017-09-20T09:17:18.965Z,14.46
2017-09-20T09:18:18.910Z,14.54
2017-09-20T09:19:18.859Z,14.6
2017-09-20T09:20:18.896Z,14.66
2017-09-20T09:21:18.823Z,14.72
2017-09-20T09:22:18.794Z,14.78
2017-09-20T09:23:18.780Z,14.9
2017-09-20T09:24:18.767Z,14.91
2017-09-20T09:25:18.740Z,14.95
2017-09-20T09:26:18.718Z,15.03
2017-09-20T09:27:18.386Z,15.03
2017-09-20T09:28:18.672Z,15.04
2017-09-20T09:29:18.657Z,15.04
2017-09-20T09:30:18.642Z,15.07
2017-09-20T09:31:18.311Z,15.03
2017-09-20T09:32:18.600Z,15.11
2017-09-20T09:33:18.569Z,15.09
2017-09-20T09:34:18.547Z,15.18
2017-09-20T09:35:18.528Z,15.18
2017-09-20T09:36:18.509Z,15.2
2017-09-20T09:37:18.485Z,15.18
2017-09-20T09:38:18.466Z,15.13
2017-09-20T09:39:18.143Z,15.13
2017-09-20T09:40:18.433Z,15.09
2017-09-20T09:41:18.400Z,15.18
2017-09-20T09:42:18.072Z,15.19
2017-09-20T09:43:18.358Z,15.27
2017-09-20T09:44:18.030Z,15.18
2017-09-20T09:45:18.323Z,15.23
2017-09-20T09:46:18.303Z,15.27
2017-09-20T09:47:18.275Z,15.27
2017-09-20T09:48:18.262Z,15.25
2017-09-20T09:49:18.245Z,15.33
2017-09-20T09:50:17.962Z,15.37
2017-09-20T09:51:18.199Z,15.49
2017-09-20T09:52:17.865Z,15.55
2017-09-20T09:53:18.152Z,15.7
2017-09-20T09:54:17.824Z,15.68
2017-09-20T09:55:18.118Z,15.76
2017-09-20T09:56:18.146Z,15.8
2017-09-20T09:57:18.073Z,15.85
2017-09-20T09:58:18.053Z,15.86
2017-09-20T09:59:18.040Z,15.89
2017-09-20T10:00:18.019Z,15.96
2017-09-20T10:01:17.994Z,15.95
2017-09-20T10:02:17.972Z,15.96
2017-09-20T10:03:17.942Z,15.96
2017-09-20T10:04:17.935Z,16.04
2017-09-20T10:05:17.926Z,16.01
2017-09-20T10:06:17.602Z,15.98
2017-09-20T10:07:17.877Z,15.93
2017-09-20T10:08:17.852Z,15.96
2017-09-20T10:09:17.850Z,15.84
2017-09-20T10:10:17.820Z,15.89
2017-09-20T10:11:17.794Z,15.95
2017-09-20T10:12:17.781Z,15.86
2017-09-20T10:13:17.747Z,15.99
2017-09-20T10:14:17.728Z,15.85
2017-09-20T10:15:17.705Z,15.93
2017-09-20T10:16:17.738Z,15.98
2017-09-20T10:17:17.665Z,16.06
2017-09-20T10:18:17.647Z,15.99
2017-09-20T10:19:17.631Z,16.23
2017-09-20T10:20:17.601Z,16.25
2017-09-20T10:21:17.583Z,16.32
2017-09-20T10:22:17.569Z,16.51
2017-09-20T10:23:17.241Z,16.55
2017-09-20T10:24:17.526Z,16.7
2017-09-20T10:25:17.513Z,16.78
2017-09-20T10:26:17.485Z,16.84
2017-09-20T10:27:17.168Z,16.92
2017-09-20T10:28:17.446Z,16.9
2017-09-20T10:29:17.117Z,17
2017-09-20T10:30:17.407Z,17
2017-09-20T10:31:17.389Z,17.14
2017-09-20T10:32:17.377Z,17.24
2017-09-20T10:33:17.349Z,17.07
2017-09-20T10:34:17.326Z,17.1
2017-09-20T10:35:17.317Z,17.09
2017-09-20T10:36:17.294Z,17.1
2017-09-20T10:37:17.266Z,17.14
2017-09-20T10:38:17.248Z,17.14
2017-09-20T10:39:17.234Z,17.25
2017-09-20T10:40:17.266Z,17.3
2017-09-20T10:41:17.221Z,17.28
2017-09-20T10:42:17.180Z,17.25
2017-09-20T10:43:17.157Z,17.28
2017-09-20T10:44:17.144Z,17.32
2017-09-20T10:45:17.112Z,17.42
2017-09-20T10:46:17.101Z,17.39
2017-09-20T10:47:17.070Z,17.43
2017-09-20T10:48:17.058Z,17.47
2017-09-20T10:49:17.043Z,17.6
2017-09-20T10:50:17.018Z,17.55
2017-09-20T10:51:16.695Z,17.68
2017-09-20T10:52:16.982Z,17.73
2017-09-20T10:53:16.957Z,17.79
2017-09-20T10:54:16.943Z,17.81
2017-09-20T10:55:16.930Z,17.81
2017-09-20T10:56:16.904Z,17.98
2017-09-20T10:57:16.628Z,17.99
2017-09-20T10:58:16.867Z,17.99
2017-09-20T10:59:16.841Z,18.09
2017-09-20T11:00:16.822Z,18.1
2017-09-20T11:01:16.801Z,18.09
2017-09-20T11:02:16.482Z,18.11
2017-09-20T11:03:16.779Z,18.13
2017-09-20T11:04:16.754Z,18.17
2017-09-20T11:05:16.730Z,18.19
2017-09-20T11:06:16.763Z,18.19
2017-09-20T11:07:16.702Z,18.26
2017-09-20T11:08:16.677Z,18.28
2017-09-20T11:09:16.655Z,18.35
2017-09-20T11:10:16.326Z,18.32
2017-09-20T11:11:16.615Z,18.35
2017-09-20T11:12:16.650Z,18.42
2017-09-20T11:13:16.578Z,18.41
2017-09-20T11:14:16.563Z,18.39
2017-09-20T11:15:16.547Z,18.35
2017-09-20T11:16:16.521Z,18.35
2017-09-20T11:17:16.502Z,18.28
2017-09-20T11:18:16.486Z,18.31
2017-09-20T11:19:16.468Z,18.13
2017-09-20T11:20:16.446Z,18.05
2017-09-20T11:21:16.430Z,18.02
2017-09-20T11:22:16.415Z,18.01
2017-09-20T11:23:16.388Z,18.02
2017-09-20T11:24:16.385Z,17.79
2017-09-20T11:25:16.352Z,17.98
2017-09-20T11:26:16.340Z,17.83
2017-09-20T11:28:16.303Z,17.79
2017-09-20T11:29:16.278Z,17.84
2017-09-20T11:30:16.258Z,17.62
2017-09-20T11:31:16.240Z,17.7
2017-09-20T11:32:16.224Z,17.66
2017-09-20T11:33:16.202Z,17.63
2017-09-20T11:34:15.886Z,17.49
2017-09-20T11:35:15.858Z,17.55
2017-09-20T11:36:16.143Z,17.54
2017-09-20T11:37:16.124Z,17.54
2017-09-20T11:38:16.152Z,17.46
2017-09-20T11:39:16.083Z,17.45
2017-09-20T11:40:16.059Z,17.45
2017-09-20T11:41:16.046Z,17.39
2017-09-20T11:42:16.031Z,17.47
2017-09-20T11:43:16.007Z,17.45
2017-09-20T11:44:15.985Z,17.49
2017-09-20T11:45:15.960Z,17.35
2017-09-20T11:46:15.640Z,17.49
2017-09-20T11:47:15.981Z,17.43
2017-09-20T11:48:15.907Z,17.32
2017-09-20T11:49:15.879Z,17.33
2017-09-20T11:50:15.873Z,17.24
2017-09-20T11:51:15.842Z,17.18
2017-09-20T11:52:15.826Z,17.21
2017-09-20T11:53:15.806Z,17.15
2017-09-20T11:54:15.799Z,17.21
2017-09-20T11:55:15.820Z,17.24
2017-09-20T11:56:15.755Z,17.17
2017-09-20T11:57:15.737Z,17.25
2017-09-20T11:58:15.718Z,17.25
2017-09-20T11:59:15.697Z,17.24
2017-09-20T12:00:15.669Z,17.3
2017-09-20T12:01:15.648Z,17.36
2017-09-20T12:02:15.631Z,17.33
2017-09-20T12:03:15.616Z,17.32
2017-09-20T12:04:15.594Z,17.43
2017-09-20T12:05:15.571Z,17.43
2017-09-20T12:06:15.552Z,17.42
2017-09-20T12:07:15.532Z,17.3
2017-09-20T12:08:15.513Z,17.3
2017-09-20T12:09:15.490Z,17.36
2017-09-20T12:10:15.469Z,17.27
2017-09-20T12:11:15.450Z,17.27
2017-09-20T12:12:15.433Z,17.15
2017-09-20T12:13:15.419Z,17.02
2017-09-20T12:14:15.398Z,16.99
2017-09-20T12:15:15.381Z,16.9
2017-09-20T12:16:15.352Z,16.9
2017-09-20T12:17:15.332Z,16.81
2017-09-20T12:18:15.312Z,16.78
2017-09-20T12:19:15.293Z,16.7
2017-09-20T12:20:15.306Z,16.6
2017-09-20T12:21:15.254Z,16.48
2017-09-20T12:22:15.226Z,16.34
2017-09-20T12:23:15.207Z,16.32
2017-09-20T12:24:15.187Z,16.26
2017-09-20T12:25:14.865Z,16.23
2017-09-20T12:26:15.155Z,16.07
2017-09-20T12:27:15.133Z,16.11
2017-09-20T12:28:14.800Z,15.99
2017-09-20T12:29:14.792Z,15.99
2017-09-20T12:30:15.067Z,15.78
2017-09-20T12:31:15.054Z,15.56
2017-09-20T12:32:15.078Z,15.48
2017-09-20T12:33:15.002Z,15.38
2017-09-20T12:34:14.983Z,15.22
2017-09-20T12:35:14.984Z,15.12
2017-09-20T12:36:14.942Z,15.01
2017-09-20T12:37:14.920Z,14.93
2017-09-20T12:38:14.903Z,14.93
2017-09-20T12:39:14.875Z,14.86
2017-09-20T12:40:14.550Z,14.78
2017-09-20T12:41:14.829Z,14.69
2017-09-20T12:42:14.806Z,14.82
2017-09-20T12:43:14.791Z,14.74
2017-09-20T12:44:14.779Z,14.72
2017-09-20T12:45:14.751Z,14.75
2017-09-20T12:46:14.729Z,14.74
2017-09-20T12:47:14.720Z,14.8
2017-09-20T12:48:14.379Z,14.79
2017-09-20T12:49:14.673Z,14.79
2017-09-20T12:50:14.637Z,14.85
2017-09-20T12:51:14.622Z,14.82
2017-09-20T12:52:14.596Z,14.91
2017-09-20T12:53:14.580Z,14.85
2017-09-20T12:54:14.551Z,15
2017-09-20T12:55:14.543Z,14.97